createdAt,value
2022-11-13T00:00:29.374Z,38.10
2022-11-13T00:01:23.946Z,36.00
2022-11-13T00:01:56.229Z,40.50
2022-11-13T00:02:28.156Z,37.40
2022-11-13T00:03:00.149Z,35.40
2022-11-13T00:03:32.008Z,38.10
2022-11-13T00:04:04.055Z,34.90
2022-11-13T00:04:35.885Z,39.70
2022-11-13T00:05:07.948Z,38.80
2022-11-13T00:05:39.909Z,36.10
2022-11-13T00:06:13.696Z,34.60
2022-11-13T00:06:45.550Z,34.30
2022-11-13T00:07:17.394Z,36.70
2022-11-13T00:07:49.282Z,36.20
2022-11-13T00:08:21.196Z,37.70
2022-11-13T00:08:54.784Z,37.30
2022-11-13T00:09:26.664Z,35.20
2022-11-13T00:09:58.513Z,36.60
2022-11-13T00:10:30.445Z,35.00
2022-11-13T00:11:22.570Z,38.50
2022-11-13T00:11:54.373Z,38.80
2022-11-13T00:12:26.250Z,36.50
2022-11-13T00:12:58.232Z,37.70
2022-11-13T00:13:30.788Z,38.40
2022-11-13T00:14:03.064Z,38.90
2022-11-13T00:14:34.849Z,39.40
2022-11-13T00:15:06.969Z,39.00
2022-11-13T00:15:38.684Z,33.80
2022-11-13T00:16:12.625Z,43.40
2022-11-13T00:16:44.349Z,38.80
2022-11-13T00:17:16.114Z,41.50
2022-11-13T00:17:47.920Z,35.90
2022-11-13T00:18:19.719Z,34.60
2022-11-13T00:18:51.822Z,36.60
2022-11-13T00:19:23.631Z,31.80
2022-11-13T00:19:55.473Z,43.40
2022-11-13T00:20:27.323Z,36.20
2022-11-13T00:21:05.746Z,37.80
2022-11-13T00:21:37.505Z,35.00
2022-11-13T00:22:09.431Z,38.10
2022-11-13T00:22:42.009Z,36.30
2022-11-13T00:23:13.962Z,39.10
2022-11-13T00:23:46.423Z,41.70
2022-11-13T00:24:18.212Z,37.00
2022-11-13T00:24:49.994Z,38.10
2022-11-13T00:25:21.750Z,37.80
2022-11-13T00:25:53.595Z,36.20
2022-11-13T00:26:27.999Z,36.50
2022-11-13T00:26:59.990Z,38.90
2022-11-13T00:27:32.240Z,35.70
2022-11-13T00:28:04.186Z,40.10
2022-11-13T00:28:36.444Z,39.50
2022-11-13T00:29:08.618Z,38.40
2022-11-13T00:29:40.449Z,38.00
2022-11-13T00:30:17.879Z,34.00
2022-11-13T00:30:50.984Z,42.00
2022-11-13T00:31:23.183Z,35.00
2022-11-13T00:31:55.111Z,40.60
2022-11-13T00:32:26.995Z,41.40
2022-11-13T00:32:58.792Z,39.60
2022-11-13T00:34:09.035Z,37.90
2022-11-13T00:35:14.444Z,39.50
2022-11-13T00:35:46.184Z,37.60
2022-11-13T00:36:26.341Z,39.00
2022-11-13T00:36:58.407Z,36.00
2022-11-13T00:37:30.300Z,37.70
2022-11-13T00:38:02.050Z,36.40
2022-11-13T00:38:34.318Z,37.30
2022-11-13T00:39:06.189Z,36.50
2022-11-13T00:39:38.066Z,39.80
2022-11-13T00:40:10.273Z,40.40
2022-11-13T00:40:42.182Z,36.40
2022-11-13T00:41:14.315Z,36.70
2022-11-13T00:41:46.263Z,36.10
2022-11-13T00:42:18.098Z,34.40
2022-11-13T00:42:49.872Z,38.80
2022-11-13T00:43:21.651Z,38.50
2022-11-13T00:43:53.577Z,36.90
2022-11-13T00:44:25.384Z,34.90
2022-11-13T00:44:57.137Z,35.00
2022-11-13T00:45:29.022Z,35.90
2022-11-13T00:46:01.441Z,41.10
2022-11-13T00:46:33.610Z,33.40
2022-11-13T00:47:06.285Z,38.70
2022-11-13T00:47:38.190Z,36.40
2022-11-13T00:48:09.924Z,37.20
2022-11-13T00:48:42.137Z,33.60
2022-11-13T00:49:14.050Z,40.50
2022-11-13T00:49:45.818Z,35.60
2022-11-13T00:50:17.674Z,33.80
2022-11-13T00:50:49.923Z,37.60
2022-11-13T00:51:22.170Z,37.20
2022-11-13T00:51:54.052Z,38.10
2022-11-13T00:52:25.909Z,36.00
2022-11-13T00:52:57.726Z,36.30
2022-11-13T00:53:29.672Z,37.50
2022-11-13T00:54:01.581Z,37.90
2022-11-13T00:54:33.434Z,34.60
2022-11-13T00:55:05.782Z,34.40
2022-11-13T00:55:37.642Z,37.50
2022-11-13T00:56:09.470Z,37.10
2022-11-13T00:56:41.333Z,37.40
2022-11-13T00:57:13.355Z,32.30
2022-11-13T00:57:45.172Z,32.70
2022-11-13T00:58:17.838Z,32.90
2022-11-13T00:58:49.865Z,35.00
2022-11-13T00:59:21.757Z,34.00
2022-11-13T00:59:53.665Z,35.30
2022-11-13T01:00:25.473Z,34.00
2022-11-13T01:01:04.787Z,33.00
2022-11-13T01:01:36.731Z,32.20
2022-11-13T01:02:09.671Z,32.00
2022-11-13T01:02:41.419Z,34.30
2022-11-13T01:03:14.987Z,33.20
2022-11-13T01:03:46.904Z,33.90
2022-11-13T01:04:18.755Z,36.30
2022-11-13T01:04:50.788Z,35.10
2022-11-13T01:05:22.576Z,33.50
2022-11-13T01:05:54.347Z,35.60
2022-11-13T01:06:27.508Z,33.50
2022-11-13T01:06:59.332Z,34.30
2022-11-13T01:07:31.195Z,33.30
2022-11-13T01:08:04.210Z,33.50
2022-11-13T01:08:36.413Z,39.30
2022-11-13T01:09:09.155Z,33.30
2022-11-13T01:09:40.934Z,34.90
2022-11-13T01:10:12.947Z,32.80
2022-11-13T01:10:53.000Z,32.60
2022-11-13T01:11:58.665Z,32.20
2022-11-13T01:12:30.712Z,34.70
2022-11-13T01:13:02.527Z,35.80
2022-11-13T01:13:34.389Z,35.90
2022-11-13T01:14:06.621Z,36.00
2022-11-13T01:14:38.533Z,33.90
2022-11-13T01:15:10.439Z,34.40
2022-11-13T01:15:44.079Z,35.20
2022-11-13T01:16:17.831Z,35.50
2022-11-13T01:16:49.927Z,33.30
2022-11-13T01:17:21.886Z,36.00
2022-11-13T01:17:54.644Z,34.90
2022-11-13T01:18:27.030Z,34.70
2022-11-13T01:18:59.233Z,33.70
2022-11-13T01:19:31.148Z,33.40
2022-11-13T01:20:04.611Z,34.10
2022-11-13T01:20:36.671Z,35.00
2022-11-13T01:21:15.046Z,33.40
2022-11-13T01:21:46.876Z,35.60
2022-11-13T01:22:18.723Z,32.80
2022-11-13T01:22:50.816Z,33.00
2022-11-13T01:23:22.573Z,32.00
2022-11-13T01:23:55.801Z,39.70
2022-11-13T01:24:27.590Z,33.40
2022-11-13T01:24:59.326Z,31.50
2022-11-13T01:25:31.279Z,38.70
2022-11-13T01:26:22.234Z,33.50
2022-11-13T01:26:54.051Z,35.10
2022-11-13T01:27:25.948Z,35.60
2022-11-13T01:27:57.723Z,37.20
2022-11-13T01:28:29.702Z,37.00
2022-11-13T01:29:01.792Z,39.30
2022-11-13T01:29:33.725Z,38.70
2022-11-13T01:30:06.193Z,37.80
2022-11-13T01:30:39.031Z,37.30
2022-11-13T01:31:18.435Z,35.30
2022-11-13T01:31:50.407Z,36.90
2022-11-13T01:32:22.234Z,35.50
2022-11-13T01:32:54.022Z,33.70
2022-11-13T01:33:26.020Z,37.20
2022-11-13T01:33:58.329Z,35.90
2022-11-13T01:34:30.519Z,35.80
2022-11-13T01:35:02.318Z,37.30
2022-11-13T01:35:34.099Z,34.30
2022-11-13T01:36:12.528Z,34.00
2022-11-13T01:36:44.474Z,39.10
2022-11-13T01:37:16.295Z,34.10
2022-11-13T01:37:48.099Z,37.60
2022-11-13T01:38:19.968Z,33.70
2022-11-13T01:38:52.540Z,36.40
2022-11-13T01:39:24.327Z,34.10
2022-11-13T01:39:56.130Z,39.80
2022-11-13T01:40:27.877Z,36.60
2022-11-13T01:40:59.764Z,35.90
2022-11-13T01:41:33.797Z,35.80
2022-11-13T01:42:05.872Z,36.40
2022-11-13T01:42:37.672Z,36.90
2022-11-13T01:43:38.894Z,36.30
2022-11-13T01:44:13.517Z,36.50
2022-11-13T01:44:51.663Z,32.60
2022-11-13T01:46:08.350Z,35.40
2022-11-13T01:46:54.880Z,35.50
2022-11-13T01:47:27.168Z,37.50
2022-11-13T01:47:59.552Z,37.00
2022-11-13T01:48:56.059Z,36.50
2022-11-13T01:49:34.041Z,36.30
2022-11-13T01:50:09.430Z,38.00
2022-11-13T01:50:41.412Z,36.30
2022-11-13T01:51:18.595Z,35.00
2022-11-13T01:51:55.508Z,32.80
2022-11-13T01:52:35.074Z,37.50
2022-11-13T01:53:07.205Z,40.40
2022-11-13T01:53:41.652Z,36.20
2022-11-13T01:54:18.691Z,35.70
2022-11-13T01:54:54.856Z,36.80
2022-11-13T01:55:26.918Z,36.20
2022-11-13T01:55:59.039Z,35.50
2022-11-13T01:56:30.988Z,33.60
2022-11-13T01:57:04.105Z,39.60
2022-11-13T01:57:35.936Z,34.90
2022-11-13T01:58:10.001Z,36.50
2022-11-13T01:58:46.519Z,34.90
2022-11-13T01:59:25.288Z,35.90
2022-11-13T02:00:01.595Z,35.20
2022-11-13T02:00:33.788Z,35.90
2022-11-13T02:01:06.040Z,35.50
2022-11-13T02:01:38.212Z,36.00
2022-11-13T02:02:10.062Z,38.60
2022-11-13T02:02:42.072Z,33.50
2022-11-13T02:03:13.959Z,35.00
2022-11-13T02:03:45.772Z,34.70
2022-11-13T02:04:17.495Z,35.00
2022-11-13T02:04:49.807Z,36.60
2022-11-13T02:05:21.584Z,37.40
2022-11-13T02:05:54.034Z,36.80
2022-11-13T02:06:30.401Z,35.30
2022-11-13T02:07:06.712Z,35.00
2022-11-13T02:07:38.665Z,32.70
2022-11-13T02:08:10.651Z,37.90
2022-11-13T02:08:43.932Z,35.80
2022-11-13T02:09:18.287Z,37.60
2022-11-13T02:09:54.376Z,37.20
2022-11-13T02:10:26.752Z,36.80
2022-11-13T02:10:58.660Z,38.80
2022-11-13T02:11:30.537Z,42.70
2022-11-13T02:12:05.339Z,34.50
2022-11-13T02:12:41.602Z,36.10
2022-11-13T02:13:14.232Z,35.10
2022-11-13T02:13:46.976Z,37.00
2022-11-13T02:14:21.285Z,35.00
2022-11-13T02:14:54.760Z,35.10
2022-11-13T02:15:27.936Z,36.40
2022-11-13T02:16:00.477Z,41.60
2022-11-13T02:16:34.390Z,34.40
2022-11-13T02:17:09.847Z,36.70
2022-11-13T02:18:08.520Z,34.90
2022-11-13T02:18:42.017Z,38.90
2022-11-13T02:19:31.070Z,35.80
2022-11-13T02:20:05.472Z,40.00
2022-11-13T02:20:46.097Z,35.40
2022-11-13T02:21:31.175Z,38.70
2022-11-13T02:22:25.426Z,39.70
2022-11-13T02:23:11.412Z,39.90
2022-11-13T02:23:51.764Z,40.00
2022-11-13T02:24:32.572Z,39.40
2022-11-13T02:25:06.295Z,38.30
2022-11-13T02:25:41.585Z,37.00
2022-11-13T02:26:13.330Z,41.70
2022-11-13T02:26:45.385Z,47.00
2022-11-13T02:27:29.905Z,39.70
2022-11-13T02:28:01.798Z,42.20
2022-11-13T02:28:33.825Z,42.90
2022-11-13T02:29:05.935Z,44.10
2022-11-13T02:29:37.817Z,44.80
2022-11-13T02:30:32.091Z,40.40
2022-11-13T02:31:12.607Z,39.90
2022-11-13T02:31:44.355Z,43.10
2022-11-13T02:32:16.197Z,45.40
2022-11-13T02:32:50.420Z,46.30
2022-11-13T02:33:31.246Z,55.70
2022-11-13T02:34:03.144Z,52.70
2022-11-13T02:34:34.978Z,47.40
2022-11-13T02:35:06.992Z,49.30
2022-11-13T02:35:38.813Z,50.70
2022-11-13T02:36:12.355Z,50.60
2022-11-13T02:36:44.166Z,48.40
2022-11-13T02:37:15.954Z,50.10
2022-11-13T02:37:47.961Z,51.90
2022-11-13T02:38:19.923Z,55.80
2022-11-13T02:38:53.701Z,50.30
2022-11-13T02:39:25.424Z,51.70
2022-11-13T02:39:57.221Z,53.10
2022-11-13T02:40:29.547Z,50.20
2022-11-13T02:41:01.348Z,49.10
2022-11-13T02:41:33.126Z,45.10
2022-11-13T02:42:04.927Z,49.40
2022-11-13T02:42:36.902Z,46.60
2022-11-13T02:43:08.815Z,46.10
2022-11-13T02:43:41.019Z,43.70
2022-11-13T02:44:12.866Z,47.90
2022-11-13T02:44:44.669Z,44.10
2022-11-13T02:45:16.460Z,53.20
2022-11-13T02:45:48.268Z,47.70
2022-11-13T02:46:20.181Z,51.90
2022-11-13T02:46:52.056Z,47.10
2022-11-13T02:47:24.507Z,49.90
2022-11-13T02:47:58.917Z,53.20
2022-11-13T02:48:30.997Z,48.70
2022-11-13T02:49:03.990Z,54.40
2022-11-13T02:49:35.774Z,54.40
2022-11-13T02:50:09.726Z,59.00
2022-11-13T02:50:41.633Z,53.30
2022-11-13T02:51:13.776Z,53.10
2022-11-13T02:51:45.577Z,60.50
2022-11-13T02:52:17.429Z,58.50
2022-11-13T02:52:49.384Z,54.70
2022-11-13T02:53:21.394Z,59.80
2022-11-13T02:53:53.155Z,56.50
2022-11-13T02:54:25.220Z,62.00
2022-11-13T02:54:57.052Z,63.50
2022-11-13T02:55:28.931Z,51.00
2022-11-13T02:56:00.894Z,57.40
2022-11-13T02:56:32.767Z,55.30
2022-11-13T02:57:04.615Z,53.80
2022-11-13T02:57:36.511Z,54.70
2022-11-13T02:58:08.310Z,50.10
2022-11-13T02:58:39.977Z,60.10
2022-11-13T02:59:11.736Z,53.90
2022-11-13T02:59:43.853Z,58.20
2022-11-13T03:00:16.403Z,64.20
2022-11-13T03:00:48.412Z,61.70
2022-11-13T03:01:20.351Z,58.90
2022-11-13T03:01:52.363Z,62.50
2022-11-13T03:02:24.643Z,62.20
2022-11-13T03:02:56.619Z,67.70
2022-11-13T03:03:56.149Z,64.50
2022-11-13T03:04:20.490Z,59.10
2022-11-13T03:05:48.456Z,59.70
2022-11-13T03:06:20.353Z,63.60
2022-11-13T03:06:52.097Z,56.10
2022-11-13T03:07:23.928Z,62.20
2022-11-13T03:07:55.679Z,60.00
2022-11-13T03:08:27.765Z,59.40
2022-11-13T03:08:59.598Z,58.40
2022-11-13T03:09:31.406Z,58.90
2022-11-13T03:10:03.592Z,55.60
2022-11-13T03:10:36.377Z,56.50
2022-11-13T03:11:11.205Z,57.70
2022-11-13T03:11:43.762Z,58.60
2022-11-13T03:12:15.548Z,60.30
2022-11-13T03:12:47.418Z,53.50
2022-11-13T03:13:19.372Z,54.60
2022-11-13T03:13:51.274Z,56.60
2022-11-13T03:14:23.070Z,51.60
2022-11-13T03:14:54.766Z,54.40
2022-11-13T03:15:26.554Z,61.70
2022-11-13T03:16:06.271Z,58.10
2022-11-13T03:16:38.059Z,57.00
2022-11-13T03:17:09.942Z,57.90
2022-11-13T03:17:41.861Z,57.70
2022-11-13T03:18:14.017Z,50.30
2022-11-13T03:18:46.361Z,54.90
2022-11-13T03:19:18.333Z,54.80
2022-11-13T03:19:50.092Z,52.50
2022-11-13T03:20:22.028Z,47.00
2022-11-13T03:20:53.788Z,50.70
2022-11-13T03:21:25.567Z,48.90
2022-11-13T03:21:57.529Z,52.00
2022-11-13T03:22:29.442Z,45.50
2022-11-13T03:23:01.910Z,50.50
2022-11-13T03:23:33.745Z,48.90
2022-11-13T03:24:05.959Z,49.70
2022-11-13T03:24:37.807Z,46.70
2022-11-13T03:25:10.880Z,49.10
2022-11-13T03:25:42.992Z,49.20
2022-11-13T03:26:16.859Z,48.70
2022-11-13T03:26:48.671Z,47.60
2022-11-13T03:27:21.071Z,45.40
2022-11-13T03:27:52.760Z,44.70
2022-11-13T03:28:24.723Z,44.10
2022-11-13T03:28:56.727Z,46.80
2022-11-13T03:29:28.918Z,44.50
2022-11-13T03:30:00.837Z,46.80
2022-11-13T03:30:32.650Z,45.00
2022-11-13T03:31:05.108Z,49.10
2022-11-13T03:31:37.033Z,43.70
2022-11-13T03:32:08.796Z,46.10
2022-11-13T03:32:40.729Z,53.00
2022-11-13T03:33:12.397Z,47.40
2022-11-13T03:33:44.272Z,48.20
2022-11-13T03:34:16.934Z,46.80
2022-11-13T03:34:48.776Z,44.20
2022-11-13T03:35:22.234Z,42.90
2022-11-13T03:35:54.511Z,47.70
2022-11-13T03:36:26.715Z,45.60
2022-11-13T03:36:58.530Z,42.50
2022-11-13T03:37:30.355Z,44.80
2022-11-13T03:38:02.303Z,43.20
2022-11-13T03:38:34.688Z,40.70
2022-11-13T03:39:06.639Z,43.00
2022-11-13T03:39:38.540Z,44.20
2022-11-13T03:40:10.705Z,42.60
2022-11-13T03:40:42.954Z,42.80
2022-11-13T03:41:14.791Z,43.30
2022-11-13T03:41:46.665Z,42.70
2022-11-13T03:42:18.390Z,43.00
2022-11-13T03:42:50.167Z,45.00
2022-11-13T03:43:22.199Z,40.10
2022-11-13T03:43:54.086Z,42.20
2022-11-13T03:44:25.928Z,45.00
2022-11-13T03:44:57.944Z,44.00
2022-11-13T03:45:29.819Z,42.50
2022-11-13T03:46:01.667Z,45.90
2022-11-13T03:46:33.595Z,43.40
2022-11-13T03:47:05.704Z,42.30
2022-11-13T03:47:37.733Z,44.40
2022-11-13T03:48:09.525Z,42.80
2022-11-13T03:48:41.430Z,48.50
2022-11-13T03:49:13.289Z,45.20
2022-11-13T03:49:45.217Z,42.80
2022-11-13T03:50:17.038Z,45.10
2022-11-13T03:50:52.926Z,45.90
2022-11-13T03:51:24.975Z,44.30
2022-11-13T03:51:57.360Z,42.20
2022-11-13T03:52:29.253Z,46.20
2022-11-13T03:53:01.289Z,44.90
2022-11-13T03:53:33.249Z,44.30
2022-11-13T03:54:05.037Z,45.90
2022-11-13T03:54:36.881Z,43.00
2022-11-13T03:55:08.959Z,44.20
2022-11-13T03:55:41.019Z,45.20
2022-11-13T03:56:12.822Z,46.90
2022-11-13T03:56:44.550Z,43.30
2022-11-13T03:57:16.427Z,45.20
2022-11-13T03:57:48.277Z,45.00
2022-11-13T03:58:20.743Z,46.90
2022-11-13T03:58:52.571Z,44.20
2022-11-13T03:59:24.360Z,43.90
2022-11-13T03:59:56.177Z,44.30
2022-11-13T04:00:28.157Z,40.70
2022-11-13T04:00:59.946Z,40.70
2022-11-13T04:01:31.959Z,43.40
2022-11-13T04:02:03.978Z,45.60
2022-11-13T04:02:36.101Z,45.80
2022-11-13T04:03:08.797Z,40.70
2022-11-13T04:03:41.609Z,43.50
2022-11-13T04:04:13.460Z,44.70
2022-11-13T04:04:45.285Z,46.60
2022-11-13T04:05:22.474Z,43.80
2022-11-13T04:05:54.546Z,44.00
2022-11-13T04:06:26.425Z,46.30
2022-11-13T04:06:58.261Z,50.30
2022-11-13T04:07:30.173Z,45.50
2022-11-13T04:08:02.451Z,43.20
2022-11-13T04:08:34.174Z,43.60
2022-11-13T04:09:06.429Z,44.30
2022-11-13T04:09:38.319Z,46.30
2022-11-13T04:10:10.120Z,45.60
2022-11-13T04:10:42.060Z,45.40
2022-11-13T04:11:13.890Z,44.40
2022-11-13T04:11:45.769Z,46.20
2022-11-13T04:12:17.481Z,42.90
2022-11-13T04:12:49.341Z,46.30
2022-11-13T04:13:21.144Z,42.60
2022-11-13T04:13:53.037Z,43.70
2022-11-13T04:14:24.821Z,46.40
2022-11-13T04:14:56.657Z,47.00
2022-11-13T04:15:28.628Z,46.00
2022-11-13T04:16:00.594Z,45.60
2022-11-13T04:16:32.328Z,49.10
2022-11-13T04:17:04.149Z,42.50
2022-11-13T04:17:36.052Z,44.40
2022-11-13T04:18:07.889Z,50.80
2022-11-13T04:18:39.723Z,46.70
2022-11-13T04:19:11.508Z,47.00
2022-11-13T04:19:43.201Z,48.30
2022-11-13T04:20:15.821Z,49.90
2022-11-13T04:20:47.617Z,48.40
2022-11-13T04:21:19.527Z,44.20
2022-11-13T04:21:51.268Z,48.20
2022-11-13T04:22:23.060Z,49.40
2022-11-13T04:22:56.429Z,43.80
2022-11-13T04:23:28.806Z,48.20
2022-11-13T04:24:00.599Z,47.50
2022-11-13T04:24:32.536Z,44.50
2022-11-13T04:25:05.436Z,49.40
2022-11-13T04:25:37.192Z,49.70
2022-11-13T04:26:09.146Z,49.70
2022-11-13T04:26:41.038Z,51.20
2022-11-13T04:27:12.804Z,46.40
2022-11-13T04:27:44.545Z,45.40
2022-11-13T04:28:16.352Z,47.30
2022-11-13T04:28:48.227Z,45.50
2022-11-13T04:29:20.053Z,45.40
2022-11-13T04:29:51.827Z,49.50
2022-11-13T04:30:23.579Z,49.70
2022-11-13T04:30:55.870Z,50.10
2022-11-13T04:31:27.672Z,44.80
2022-11-13T04:31:59.576Z,50.80
2022-11-13T04:32:32.041Z,49.60
2022-11-13T04:33:03.802Z,46.40
2022-11-13T04:33:35.490Z,45.50
2022-11-13T04:34:08.226Z,48.30
2022-11-13T04:34:40.213Z,48.50
2022-11-13T04:35:12.225Z,48.00
2022-11-13T04:35:45.443Z,48.10
2022-11-13T04:36:17.147Z,48.20
2022-11-13T04:36:48.989Z,50.40
2022-11-13T04:37:20.683Z,48.60
2022-11-13T04:37:52.917Z,48.50
2022-11-13T04:38:24.811Z,49.50
2022-11-13T04:38:56.808Z,47.80
2022-11-13T04:39:28.614Z,46.70
2022-11-13T04:40:00.350Z,49.20
2022-11-13T04:40:32.055Z,52.50
2022-11-13T04:41:22.338Z,50.10
2022-11-13T04:42:12.551Z,47.20
2022-11-13T04:42:50.423Z,48.30
2022-11-13T04:43:22.142Z,48.80
2022-11-13T04:43:53.904Z,49.50
2022-11-13T04:44:25.658Z,45.30
2022-11-13T04:44:57.481Z,49.40
2022-11-13T04:45:29.333Z,51.50
2022-11-13T04:46:01.208Z,50.00
2022-11-13T04:46:33.118Z,49.70
2022-11-13T04:47:05.014Z,51.60
2022-11-13T04:47:37.081Z,48.70
2022-11-13T04:48:09.082Z,48.40
2022-11-13T04:48:40.803Z,47.60
2022-11-13T04:49:12.525Z,48.40
2022-11-13T04:49:44.338Z,47.90
2022-11-13T04:50:16.377Z,49.00
2022-11-13T04:50:48.130Z,52.40
2022-11-13T04:51:19.964Z,48.60
2022-11-13T04:51:51.856Z,53.80
2022-11-13T04:52:23.575Z,50.60
2022-11-13T04:52:55.441Z,52.00
2022-11-13T04:53:27.238Z,51.80
2022-11-13T04:53:59.094Z,52.90
2022-11-13T04:54:30.878Z,51.60
2022-11-13T04:55:03.786Z,46.40
2022-11-13T04:55:35.637Z,46.20
2022-11-13T04:56:07.445Z,50.00
2022-11-13T04:56:39.197Z,44.60
2022-11-13T04:57:10.861Z,48.20
2022-11-13T04:57:42.690Z,48.90
2022-11-13T04:58:14.517Z,47.30
2022-11-13T04:58:46.312Z,51.10
2022-11-13T04:59:18.416Z,48.70
2022-11-13T04:59:50.780Z,51.30
2022-11-13T05:00:23.244Z,53.90
2022-11-13T05:00:55.062Z,47.90
2022-11-13T05:01:26.854Z,48.40
2022-11-13T05:01:58.670Z,48.70
2022-11-13T05:02:30.563Z,51.40
2022-11-13T05:03:02.610Z,50.20
2022-11-13T05:03:34.481Z,47.70
2022-11-13T05:04:06.219Z,49.90
2022-11-13T05:04:38.167Z,48.20
2022-11-13T05:05:10.272Z,47.60
2022-11-13T05:05:42.345Z,47.80
2022-11-13T05:06:14.277Z,54.00
2022-11-13T05:06:46.096Z,50.40
2022-11-13T05:07:18.029Z,56.80
2022-11-13T05:07:50.266Z,50.20
2022-11-13T05:08:22.095Z,56.60
2022-11-13T05:08:54.097Z,48.00
2022-11-13T05:09:25.790Z,51.20
2022-11-13T05:09:57.854Z,46.80
2022-11-13T05:10:29.726Z,50.10
2022-11-13T05:11:02.952Z,47.90
2022-11-13T05:11:34.814Z,52.00
2022-11-13T05:12:07.693Z,52.50
2022-11-13T05:12:39.498Z,52.20
2022-11-13T05:13:11.298Z,48.00
2022-11-13T05:13:43.162Z,48.30
2022-11-13T05:14:14.980Z,52.20
2022-11-13T05:14:46.782Z,52.20
2022-11-13T05:15:19.615Z,50.10
2022-11-13T05:15:59.080Z,57.50
2022-11-13T05:16:30.765Z,48.00
2022-11-13T05:17:03.263Z,52.20
2022-11-13T05:17:35.012Z,50.30
2022-11-13T05:18:06.881Z,52.50
2022-11-13T05:18:39.159Z,51.60
2022-11-13T05:19:11.039Z,51.20
2022-11-13T05:19:42.780Z,49.80
2022-11-13T05:20:14.833Z,46.80
2022-11-13T05:20:46.595Z,50.90
2022-11-13T05:21:18.409Z,51.90
2022-11-13T05:21:50.248Z,49.40
2022-11-13T05:22:22.209Z,51.10
2022-11-13T05:22:54.193Z,51.00
2022-11-13T05:23:26.371Z,53.40
2022-11-13T05:23:58.122Z,50.60
2022-11-13T05:24:30.570Z,48.20
2022-11-13T05:25:02.463Z,46.50
2022-11-13T05:25:34.584Z,46.70
2022-11-13T05:26:13.137Z,49.90
2022-11-13T05:26:44.931Z,48.90
2022-11-13T05:27:17.683Z,53.70
2022-11-13T05:27:49.784Z,50.60
2022-11-13T05:28:21.637Z,47.30
2022-11-13T05:28:55.932Z,49.10
2022-11-13T05:29:27.852Z,49.50
2022-11-13T05:29:59.669Z,47.30
2022-11-13T05:30:31.350Z,50.50
2022-11-13T05:31:15.632Z,46.50
2022-11-13T05:31:47.778Z,52.00
2022-11-13T05:32:19.550Z,49.00
2022-11-13T05:32:52.265Z,46.70
2022-11-13T05:33:24.026Z,53.00
2022-11-13T05:33:55.928Z,48.80
2022-11-13T05:34:27.702Z,45.60
2022-11-13T05:34:59.467Z,49.70
2022-11-13T05:35:31.608Z,51.50
2022-11-13T05:36:14.358Z,49.50
2022-11-13T05:36:46.147Z,46.50
2022-11-13T05:37:18.023Z,51.80
2022-11-13T05:37:49.738Z,47.90
2022-11-13T05:38:21.596Z,50.40
2022-11-13T05:38:53.450Z,50.00
2022-11-13T05:39:25.132Z,51.30
2022-11-13T05:39:56.903Z,49.90
2022-11-13T05:40:29.599Z,47.90
2022-11-13T05:41:10.058Z,50.10
2022-11-13T05:41:41.903Z,47.20
2022-11-13T05:42:13.678Z,50.60
2022-11-13T05:42:45.611Z,50.60
2022-11-13T05:43:17.440Z,51.80
2022-11-13T05:43:53.744Z,46.80
2022-11-13T05:44:28.422Z,50.50
2022-11-13T05:45:00.206Z,45.80
2022-11-13T05:45:32.104Z,50.80
2022-11-13T05:46:10.768Z,50.20
2022-11-13T05:46:42.591Z,44.20
2022-11-13T05:47:14.411Z,49.30
2022-11-13T05:47:46.263Z,50.50
2022-11-13T05:48:18.523Z,47.50
2022-11-13T05:48:56.025Z,51.30
2022-11-13T05:49:27.821Z,46.50
2022-11-13T05:49:59.643Z,51.10
2022-11-13T05:50:31.535Z,47.00
2022-11-13T05:51:04.448Z,49.40
2022-11-13T05:51:36.314Z,52.70
2022-11-13T05:52:08.163Z,49.80
2022-11-13T05:52:40.101Z,50.20
2022-11-13T05:53:11.863Z,44.00
2022-11-13T05:53:43.774Z,54.40
2022-11-13T05:54:15.627Z,45.80
2022-11-13T05:54:47.343Z,50.70
2022-11-13T05:55:23.013Z,43.00
2022-11-13T05:56:00.225Z,48.20
2022-11-13T05:56:34.597Z,48.90
2022-11-13T05:57:06.399Z,47.80
2022-11-13T05:57:38.228Z,51.50
2022-11-13T05:58:11.396Z,47.50
2022-11-13T05:58:43.656Z,48.90
2022-11-13T05:59:15.649Z,52.10
2022-11-13T05:59:47.588Z,53.10
2022-11-13T06:00:19.657Z,49.80
2022-11-13T06:00:51.531Z,46.40
2022-11-13T06:01:27.777Z,47.60
2022-11-13T06:01:59.845Z,47.10
2022-11-13T06:02:31.731Z,48.50
2022-11-13T06:03:03.524Z,48.90
2022-11-13T06:03:36.404Z,49.00
2022-11-13T06:04:09.944Z,47.00
2022-11-13T06:04:41.723Z,42.70
2022-11-13T06:05:13.663Z,45.20
2022-11-13T06:05:45.465Z,46.50
2022-11-13T06:06:19.713Z,45.20
2022-11-13T06:06:52.080Z,47.80
2022-11-13T06:07:23.989Z,46.40
2022-11-13T06:07:55.876Z,46.80
2022-11-13T06:08:28.188Z,47.80
2022-11-13T06:09:03.179Z,47.10
2022-11-13T06:09:34.974Z,44.60
2022-11-13T06:10:07.283Z,48.30
2022-11-13T06:10:39.163Z,50.50
2022-11-13T06:11:16.692Z,46.00
2022-11-13T06:11:48.610Z,46.30
2022-11-13T06:12:20.502Z,47.90
2022-11-13T06:12:54.443Z,45.80
2022-11-13T06:13:26.611Z,50.50
2022-11-13T06:13:59.280Z,49.20
2022-11-13T06:14:31.136Z,43.80
2022-11-13T06:15:03.182Z,48.20
2022-11-13T06:15:35.006Z,45.70
2022-11-13T06:16:33.220Z,49.60
2022-11-13T06:17:05.200Z,51.00
2022-11-13T06:17:37.176Z,46.70
2022-11-13T06:18:09.244Z,42.70
2022-11-13T06:18:43.094Z,44.40
2022-11-13T06:19:15.115Z,43.40
2022-11-13T06:19:47.986Z,42.20
2022-11-13T06:20:19.746Z,46.90
2022-11-13T06:20:51.620Z,44.90
2022-11-13T06:21:26.306Z,47.50
2022-11-13T06:21:58.128Z,48.30
2022-11-13T06:22:30.068Z,49.10
2022-11-13T06:23:01.983Z,51.10
2022-11-13T06:23:35.898Z,45.70
2022-11-13T06:24:11.738Z,45.40
2022-11-13T06:24:43.708Z,44.40
2022-11-13T06:25:15.732Z,45.90
2022-11-13T06:25:47.650Z,41.00
2022-11-13T06:26:21.891Z,41.00
2022-11-13T06:26:53.949Z,44.30
2022-11-13T06:27:27.232Z,40.60
2022-11-13T06:27:59.011Z,50.10
2022-11-13T06:28:32.502Z,46.60
2022-11-13T06:29:07.871Z,43.20
2022-11-13T06:29:39.774Z,46.00
2022-11-13T06:30:12.352Z,46.40
2022-11-13T06:30:44.308Z,47.60
2022-11-13T06:31:18.002Z,42.10
2022-11-13T06:31:49.945Z,46.30
2022-11-13T06:32:21.715Z,43.00
2022-11-13T06:32:54.070Z,43.70
2022-11-13T06:33:28.101Z,43.10
2022-11-13T06:34:00.600Z,41.90
2022-11-13T06:34:32.532Z,49.00
2022-11-13T06:35:04.787Z,44.90
2022-11-13T06:35:36.556Z,38.60
2022-11-13T06:36:11.700Z,43.00
2022-11-13T06:36:43.573Z,43.70
2022-11-13T06:37:15.535Z,45.30
2022-11-13T06:37:47.474Z,42.50
2022-11-13T06:38:19.595Z,46.70
2022-11-13T06:38:51.624Z,46.10
2022-11-13T06:39:23.570Z,45.00
2022-11-13T06:39:55.498Z,45.90
2022-11-13T06:40:27.423Z,42.90
2022-11-13T06:41:00.167Z,45.90
2022-11-13T06:41:32.126Z,44.80
2022-11-13T06:42:03.977Z,44.50
2022-11-13T06:42:35.995Z,47.50
2022-11-13T06:43:07.974Z,46.10
2022-11-13T06:43:40.379Z,43.80
2022-11-13T06:44:12.363Z,42.90
2022-11-13T06:44:44.285Z,49.10
2022-11-13T06:45:17.438Z,44.50
2022-11-13T06:45:49.363Z,46.50
2022-11-13T06:46:24.436Z,47.40
2022-11-13T06:46:56.400Z,45.90
2022-11-13T06:47:28.452Z,46.90
2022-11-13T06:48:00.551Z,51.30
2022-11-13T06:48:33.380Z,43.10
2022-11-13T06:49:05.551Z,49.80
2022-11-13T06:49:37.548Z,45.00
2022-11-13T06:50:09.574Z,45.90
2022-11-13T06:50:45.695Z,49.00
2022-11-13T06:51:22.619Z,43.10
2022-11-13T06:51:54.375Z,42.70
2022-11-13T06:52:26.258Z,46.90
2022-11-13T06:52:58.082Z,43.00
2022-11-13T06:53:30.782Z,41.90
2022-11-13T06:54:02.604Z,46.90
2022-11-13T06:54:34.533Z,46.40
2022-11-13T06:55:06.730Z,43.90
2022-11-13T06:55:49.791Z,48.30
2022-11-13T06:56:21.861Z,50.80
2022-11-13T06:56:53.686Z,46.40
2022-11-13T06:57:25.552Z,49.10
2022-11-13T06:57:57.529Z,42.50
2022-11-13T06:58:29.870Z,46.20
2022-11-13T06:59:05.070Z,43.80
2022-11-13T06:59:39.864Z,43.80
2022-11-13T07:00:12.315Z,48.80
2022-11-13T07:00:44.321Z,47.00
2022-11-13T07:01:21.917Z,49.50
2022-11-13T07:01:53.791Z,45.10
2022-11-13T07:02:25.562Z,48.10
2022-11-13T07:02:57.576Z,47.20
2022-11-13T07:03:29.394Z,44.90
2022-11-13T07:04:01.196Z,46.40
2022-11-13T07:04:32.910Z,45.10
2022-11-13T07:05:04.911Z,48.10
2022-11-13T07:05:37.166Z,50.20
2022-11-13T07:06:17.510Z,47.00
2022-11-13T07:06:49.442Z,42.40
2022-11-13T07:07:21.257Z,47.10
2022-11-13T07:07:53.202Z,46.80
2022-11-13T07:08:25.154Z,47.90